createdAt,value
2023-05-24T00:00:20.680Z,552
2023-05-24T00:01:22.517Z,552.4
2023-05-24T00:02:25.039Z,552.1
2023-05-24T00:03:27.253Z,552.2
2023-05-24T00:04:29.402Z,552.3
2023-05-24T00:05:31.590Z,552.1
2023-05-24T00:06:33.495Z,552.2
2023-05-24T00:07:35.453Z,552.4
2023-05-24T00:08:37.319Z,552.1
2023-05-24T00:09:39.156Z,552.1
2023-05-24T00:10:42.109Z,552.1
2023-05-24T00:11:44.304Z,551.9
2023-05-24T00:12:46.351Z,551.9
2023-05-24T00:13:48.241Z,552
2023-05-24T00:14:50.148Z,551.6
2023-05-24T00:15:52.004Z,551.7
2023-05-24T00:16:54.358Z,551.9
2023-05-24T00:17:56.673Z,552
2023-05-24T00:18:58.566Z,552
2023-05-24T00:20:00.754Z,551.8
2023-05-24T00:21:02.620Z,551.7
2023-05-24T00:22:04.424Z,551.8
2023-05-24T00:23:06.321Z,551.9
2023-05-24T00:24:08.019Z,552
2023-05-24T00:25:09.860Z,552.2
2023-05-24T00:26:11.757Z,552.3
2023-05-24T00:27:13.585Z,552.1
2023-05-24T00:28:15.512Z,552.2
2023-05-24T00:29:17.273Z,552.3
2023-05-24T00:30:19.130Z,552
2023-05-24T00:31:21.417Z,551.9
2023-05-24T00:32:23.558Z,551.9
2023-05-24T00:33:25.435Z,551.7
2023-05-24T00:34:27.351Z,552
2023-05-24T00:35:29.333Z,551.7
2023-05-24T00:36:31.187Z,551.7
2023-05-24T00:37:33.094Z,551.9
2023-05-24T00:38:34.962Z,551.6
2023-05-24T00:39:36.803Z,552
2023-05-24T00:40:38.661Z,552.4
2023-05-24T00:41:40.533Z,552.3
2023-05-24T00:42:42.254Z,552.4
2023-05-24T00:43:44.201Z,552.5
2023-05-24T00:44:45.958Z,552.5
2023-05-24T00:45:48.008Z,552.6
2023-05-24T00:46:49.843Z,552.8
2023-05-24T00:47:51.828Z,552.8
2023-05-24T00:48:53.856Z,552.8
2023-05-24T00:49:55.696Z,552.6
2023-05-24T00:50:57.588Z,552.5
2023-05-24T00:51:59.500Z,552.6
2023-05-24T00:53:03.800Z,552.5
2023-05-24T00:54:05.557Z,552.2
2023-05-24T00:55:08.009Z,552.3
2023-05-24T00:56:09.975Z,552.3
2023-05-24T00:57:11.982Z,552.1
2023-05-24T00:58:13.885Z,551.8
2023-05-24T00:59:15.577Z,551.9
2023-05-24T01:00:17.393Z,552.3
2023-05-24T01:01:19.770Z,552
2023-05-24T01:02:22.258Z,551.8
2023-05-24T01:03:24.339Z,551.8
2023-05-24T01:04:26.222Z,552.1
2023-05-24T01:05:28.066Z,552.3
2023-05-24T01:06:29.937Z,551.9
2023-05-24T01:07:31.768Z,552.1
2023-05-24T01:08:33.713Z,552.1
2023-05-24T01:09:35.775Z,552
2023-05-24T01:10:37.632Z,551.9
2023-05-24T01:11:39.891Z,552.3
2023-05-24T01:12:41.783Z,552
2023-05-24T01:13:46.561Z,552
2023-05-24T01:14:48.512Z,552
2023-05-24T01:15:50.361Z,552.2
2023-05-24T01:16:52.307Z,552.2
2023-05-24T01:17:54.487Z,552.2
2023-05-24T01:18:56.315Z,551.9
2023-05-24T01:19:58.399Z,551.9
2023-05-24T01:21:00.215Z,551.9
2023-05-24T01:22:02.064Z,551.8
2023-05-24T01:23:03.922Z,551.6
2023-05-24T01:24:06.399Z,551.6
2023-05-24T01:25:08.343Z,551.4
2023-05-24T01:26:10.050Z,551.4
2023-05-24T01:27:11.733Z,551.5
2023-05-24T01:28:13.626Z,551.1
2023-05-24T01:29:15.531Z,551.3
2023-05-24T01:30:17.381Z,550.7
2023-05-24T01:31:19.275Z,550.7
2023-05-24T01:32:21.430Z,550.5
2023-05-24T01:33:23.357Z,550.2
2023-05-24T01:34:25.079Z,550
2023-05-24T01:35:26.662Z,550.6
2023-05-24T01:36:28.353Z,550.7
2023-05-24T01:37:30.023Z,550.5
2023-05-24T01:38:31.685Z,551.1
2023-05-24T01:39:33.329Z,551
2023-05-24T01:40:35.189Z,551.5
2023-05-24T01:41:37.034Z,551.2
2023-05-24T01:42:39.143Z,551.4
2023-05-24T01:43:40.871Z,551
2023-05-24T01:44:42.569Z,550.9
2023-05-24T01:45:44.273Z,550.5
2023-05-24T01:46:46.025Z,550.8
2023-05-24T01:47:47.967Z,550.8
2023-05-24T01:48:49.695Z,550.7
2023-05-24T01:49:51.516Z,550.5
2023-05-24T01:50:53.231Z,550.8
2023-05-24T01:51:55.210Z,551
2023-05-24T01:52:57.066Z,550.7
2023-05-24T01:53:59.017Z,550.6
2023-05-24T01:55:00.873Z,550.5
2023-05-24T01:56:02.648Z,550.4
2023-05-24T01:57:04.678Z,550.6
2023-05-24T01:58:07.115Z,550.6
2023-05-24T01:59:09.010Z,550.5
2023-05-24T02:00:10.855Z,550.9
2023-05-24T02:01:12.905Z,550.5
2023-05-24T02:02:15.183Z,550.7
2023-05-24T02:03:17.422Z,551
2023-05-24T02:04:19.225Z,550.7
2023-05-24T02:05:20.897Z,550.7
2023-05-24T02:06:22.778Z,550.9
2023-05-24T02:07:25.250Z,551.2
2023-05-24T02:08:27.065Z,551.3
2023-05-24T02:09:29.031Z,551.5
2023-05-24T02:10:30.958Z,551.4
2023-05-24T02:11:32.816Z,551.5
2023-05-24T02:12:34.674Z,551.4
2023-05-24T02:13:36.435Z,551.5
2023-05-24T02:14:38.117Z,551.4
2023-05-24T02:15:39.886Z,551.5
2023-05-24T02:16:41.764Z,551.7
2023-05-24T02:17:43.819Z,551.5
2023-05-24T02:18:45.680Z,551.6
2023-05-24T02:19:48.246Z,552.1
2023-05-24T02:20:50.177Z,552.2
2023-05-24T02:21:51.845Z,552.4
2023-05-24T02:22:53.786Z,552.4
2023-05-24T02:23:55.636Z,552.4
2023-05-24T02:24:57.375Z,552.4
2023-05-24T02:25:59.234Z,552.3
2023-05-24T02:27:00.955Z,552.5
2023-05-24T02:28:02.672Z,552.4
2023-05-24T02:29:04.461Z,552.3
2023-05-24T02:30:06.365Z,552.2
2023-05-24T02:31:08.559Z,552.2
2023-05-24T02:32:10.429Z,552.4
2023-05-24T02:33:12.758Z,552.8
2023-05-24T02:34:14.602Z,552.9
2023-05-24T02:35:16.511Z,552.6
2023-05-24T02:36:18.466Z,552.7
2023-05-24T02:37:20.410Z,552.7
2023-05-24T02:38:22.354Z,552.7
2023-05-24T02:39:24.209Z,552.6
2023-05-24T02:40:26.163Z,552.6
2023-05-24T02:41:28.300Z,552.6
2023-05-24T02:42:30.303Z,552.8
2023-05-24T02:43:32.114Z,553.1
2023-05-24T02:44:33.879Z,553.1
2023-05-24T02:45:35.647Z,553.3
2023-05-24T02:46:37.912Z,553.4
2023-05-24T02:47:40.044Z,553.3
2023-05-24T02:48:44.837Z,553.2
2023-05-24T02:49:46.574Z,553.1
2023-05-24T02:50:48.569Z,553.2
2023-05-24T02:51:50.514Z,553.2
2023-05-24T02:52:52.460Z,553.1
2023-05-24T02:53:55.437Z,552.7
2023-05-24T02:54:57.290Z,552.8
2023-05-24T02:55:59.021Z,552.9
2023-05-24T02:57:00.691Z,552.7
2023-05-24T02:58:02.628Z,552.9
2023-05-24T02:59:04.476Z,552.7
2023-05-24T03:00:06.435Z,552.9
2023-05-24T03:01:08.420Z,552.7
2023-05-24T03:02:10.336Z,552.9
2023-05-24T03:03:12.530Z,553
2023-05-24T03:04:14.304Z,552.7
2023-05-24T03:05:16.199Z,552.6
2023-05-24T03:06:17.936Z,552.9
2023-05-24T03:07:19.580Z,552.5
2023-05-24T03:08:21.218Z,552.6
2023-05-24T03:09:23.081Z,552.6
2023-05-24T03:10:25.024Z,552.3
2023-05-24T03:11:26.743Z,552.3
2023-05-24T03:12:28.375Z,552.2
2023-05-24T03:13:29.972Z,551.9
2023-05-24T03:14:31.598Z,551.9
2023-05-24T03:15:33.369Z,551.7
2023-05-24T03:16:35.931Z,551.7
2023-05-24T03:17:38.186Z,551.1
2023-05-24T03:18:39.876Z,551.2
2023-05-24T03:19:41.787Z,550.9
2023-05-24T03:20:44.851Z,551
2023-05-24T03:21:46.953Z,551.2
2023-05-24T03:22:49.017Z,550.9
2023-05-24T03:23:50.833Z,551.2
2023-05-24T03:24:52.774Z,551.2
2023-05-24T03:25:54.727Z,551.2
2023-05-24T03:26:56.682Z,551.1
2023-05-24T03:27:58.500Z,551
2023-05-24T03:29:00.799Z,551.2
2023-05-24T03:30:02.649Z,550.7
2023-05-24T03:31:04.811Z,550.6
2023-05-24T03:32:06.900Z,550.7
2023-05-24T03:33:09.086Z,550.3
2023-05-24T03:34:10.811Z,550.3
2023-05-24T03:35:12.676Z,550.1
2023-05-24T03:36:14.349Z,550.1
2023-05-24T03:37:16.356Z,549.8
2023-05-24T03:38:18.439Z,549.6
2023-05-24T03:39:20.501Z,549.5
2023-05-24T03:40:22.155Z,549.3
2023-05-24T03:41:23.813Z,549.3
2023-05-24T03:42:25.661Z,548.6
2023-05-24T03:43:30.333Z,548.7
2023-05-24T03:44:32.064Z,548.6
2023-05-24T03:45:40.804Z,548.9
2023-05-24T03:46:43.110Z,548.7
2023-05-24T03:47:45.539Z,548.8
2023-05-24T03:48:47.515Z,549.5
2023-05-24T03:49:49.402Z,549.3
2023-05-24T03:50:51.205Z,549.4
2023-05-24T03:51:53.074Z,549.7
2023-05-24T03:52:55.007Z,549.6
2023-05-24T03:53:56.963Z,550.2
2023-05-24T03:54:58.668Z,550
2023-05-24T03:56:00.265Z,549.9
2023-05-24T03:57:01.941Z,549.6
2023-05-24T03:58:03.949Z,549.7
2023-05-24T03:59:06.406Z,549.3
2023-05-24T04:00:08.174Z,549.2
2023-05-24T04:01:35.349Z,549.2
2023-05-24T04:02:37.636Z,549.2
2023-05-24T04:03:39.920Z,549
2023-05-24T04:04:42.133Z,548.9
2023-05-24T04:05:44.040Z,548.8
2023-05-24T04:06:45.712Z,549.3
2023-05-24T04:07:47.640Z,549.2
2023-05-24T04:08:49.697Z,549.3
2023-05-24T04:09:51.545Z,548.8
2023-05-24T04:10:53.387Z,549
2023-05-24T04:11:55.248Z,549
2023-05-24T04:12:57.193Z,548.8
2023-05-24T04:13:59.148Z,548.9
2023-05-24T04:15:01.007Z,548.7
2023-05-24T04:16:02.853Z,549.1
2023-05-24T04:17:05.380Z,549.1
2023-05-24T04:18:07.888Z,548.8
2023-05-24T04:19:09.701Z,549
2023-05-24T04:20:11.940Z,549.1
2023-05-24T04:21:13.786Z,548.7
2023-05-24T04:22:15.689Z,548.6
2023-05-24T04:23:17.532Z,548.2
2023-05-24T04:24:19.389Z,548.4
2023-05-24T04:25:21.340Z,548.3
2023-05-24T04:26:23.195Z,548.4
2023-05-24T04:27:25.045Z,548.4
2023-05-24T04:28:26.991Z,548.3
2023-05-24T04:29:28.835Z,548.4
2023-05-24T04:30:30.902Z,548.5
2023-05-24T04:31:32.844Z,548.2
2023-05-24T04:32:34.945Z,548.5
2023-05-24T04:33:36.696Z,548.3
2023-05-24T04:34:38.307Z,548.4
2023-05-24T04:35:40.236Z,548
2023-05-24T04:36:42.195Z,548.5
2023-05-24T04:37:44.045Z,548.4
2023-05-24T04:38:46.601Z,548.5
2023-05-24T04:39:48.573Z,548.3
2023-05-24T04:40:50.435Z,548.1
2023-05-24T04:41:52.268Z,547.8
2023-05-24T04:42:54.136Z,547.7
2023-05-24T04:43:55.878Z,547.8
2023-05-24T04:44:57.733Z,547.3
2023-05-24T04:45:59.396Z,547.5
2023-05-24T04:47:01.686Z,547.1
2023-05-24T04:48:03.937Z,546.7
2023-05-24T04:49:06.251Z,546.5
2023-05-24T04:50:08.245Z,546.1
2023-05-24T04:51:10.284Z,546.3
2023-05-24T04:52:12.308Z,546.2
2023-05-24T04:53:14.577Z,546.1
2023-05-24T04:54:16.422Z,546.1
2023-05-24T04:55:18.869Z,545.8
2023-05-24T04:56:20.730Z,545.9
2023-05-24T04:57:22.472Z,545.9
2023-05-24T04:58:24.113Z,545.8
2023-05-24T04:59:25.811Z,545.7
2023-05-24T05:00:27.733Z,546.1
2023-05-24T05:01:29.601Z,545.8
2023-05-24T05:02:31.673Z,545.4
2023-05-24T05:03:34.029Z,545.2
2023-05-24T05:04:36.049Z,545.2
2023-05-24T05:05:37.925Z,545.6
2023-05-24T05:06:39.847Z,545.3
2023-05-24T05:07:41.704Z,545.3
2023-05-24T05:08:43.528Z,545.5
2023-05-24T05:09:45.593Z,545.4
2023-05-24T05:10:47.451Z,545.4
2023-05-24T05:11:49.121Z,545.4
2023-05-24T05:12:50.960Z,545.5
2023-05-24T05:13:52.901Z,545.4
2023-05-24T05:14:54.711Z,545.3
2023-05-24T05:15:57.032Z,545.4
2023-05-24T05:16:59.073Z,545.2
2023-05-24T05:18:01.345Z,545.3
2023-05-24T05:19:03.323Z,545.6
2023-05-24T05:20:05.357Z,545.5
2023-05-24T05:21:07.316Z,545.2
2023-05-24T05:22:09.325Z,545.6
2023-05-24T05:23:11.078Z,545.3
2023-05-24T05:24:12.925Z,545.4
2023-05-24T05:25:14.667Z,545.6
2023-05-24T05:26:16.336Z,545.8
2023-05-24T05:27:17.953Z,545.4
2023-05-24T05:28:19.716Z,545.6
2023-05-24T05:29:25.677Z,545.5
2023-05-24T05:30:27.740Z,545.5
2023-05-24T05:31:29.524Z,545.3
2023-05-24T05:32:31.824Z,545.3
2023-05-24T05:33:34.314Z,545.2
2023-05-24T05:34:36.149Z,545.4
2023-05-24T05:35:38.297Z,545.2
2023-05-24T05:36:40.188Z,545.3
2023-05-24T05:37:42.114Z,545
2023-05-24T05:38:43.848Z,545.4
2023-05-24T05:39:45.604Z,545.1
2023-05-24T05:40:47.569Z,545.2
2023-05-24T05:41:49.923Z,545.3
2023-05-24T05:42:51.775Z,545.5
2023-05-24T05:43:53.722Z,545.6
2023-05-24T05:44:55.448Z,545.2
2023-05-24T05:45:57.245Z,545.4
2023-05-24T05:46:59.070Z,545.3
2023-05-24T05:48:01.161Z,545.2
2023-05-24T05:49:02.983Z,545.4
2023-05-24T05:50:04.773Z,545.3
2023-05-24T05:51:06.778Z,545.5
2023-05-24T05:52:08.568Z,545.6
2023-05-24T05:53:10.878Z,545.6
2023-05-24T05:54:12.528Z,546
2023-05-24T05:55:14.273Z,546
2023-05-24T05:56:16.023Z,546.4
2023-05-24T05:57:17.975Z,546.4
2023-05-24T05:58:19.841Z,546.3
2023-05-24T05:59:21.781Z,546.6
2023-05-24T06:00:23.837Z,546.3
2023-05-24T06:01:25.566Z,546
2023-05-24T06:02:27.992Z,545.9
2023-05-24T06:03:30.848Z,545.5
2023-05-24T06:04:33.283Z,545.4
2023-05-24T06:05:35.231Z,545.3
2023-05-24T06:06:37.082Z,545
2023-05-24T06:07:39.055Z,544.9
2023-05-24T06:08:40.985Z,544.8
2023-05-24T06:09:43.283Z,544.8
2023-05-24T06:10:45.624Z,544.7
2023-05-24T06:11:47.347Z,544.8
2023-05-24T06:12:49.642Z,544.4
2023-05-24T06:13:51.560Z,544.6
2023-05-24T06:14:53.518Z,544.2
2023-05-24T06:15:55.484Z,544.6
2023-05-24T06:17:00.911Z,544.7
2023-05-24T06:18:03.182Z,544.5
2023-05-24T06:19:07.277Z,544.9
2023-05-24T06:20:09.332Z,544.6
2023-05-24T06:21:11.087Z,544.9
2023-05-24T06:22:12.939Z,544.9
2023-05-24T06:23:14.902Z,544.9
2023-05-24T06:24:16.835Z,545
2023-05-24T06:25:18.639Z,545
2023-05-24T06:26:20.491Z,544.8
2023-05-24T06:27:22.693Z,544.9
2023-05-24T06:28:24.629Z,545
2023-05-24T06:29:26.493Z,545.3
2023-05-24T06:30:29.346Z,545
2023-05-24T06:31:31.546Z,544.6
2023-05-24T06:32:33.525Z,544.8
2023-05-24T06:33:47.025Z,544.6
2023-05-24T06:34:54.259Z,544.9
2023-05-24T06:35:56.110Z,544.6
2023-05-24T06:36:57.842Z,544.5
2023-05-24T06:37:59.648Z,544.8
2023-05-24T06:39:01.350Z,544.6
2023-05-24T06:40:03.152Z,544.8
2023-05-24T06:41:04.849Z,544.9
2023-05-24T06:42:06.515Z,544.8
2023-05-24T06:43:08.348Z,544.9
2023-05-24T06:44:10.304Z,545.1
2023-05-24T06:45:12.254Z,544.7
2023-05-24T06:46:14.107Z,544.6
2023-05-24T06:47:16.610Z,544.9
2023-05-24T06:48:19.100Z,545.1
2023-05-24T06:49:20.990Z,545.6
2023-05-24T06:50:22.693Z,545.3
2023-05-24T06:51:24.338Z,545.9
2023-05-24T06:52:26.097Z,546
2023-05-24T06:53:29.322Z,545.8
2023-05-24T06:54:31.386Z,545.8
2023-05-24T06:55:33.315Z,545.9
2023-05-24T06:56:35.278Z,546.1
2023-05-24T06:57:37.007Z,546.1
2023-05-24T06:58:38.773Z,545.7
2023-05-24T06:59:40.424Z,546
2023-05-24T07:00:43.411Z,546.3
2023-05-24T07:01:45.808Z,546.1
2023-05-24T07:02:47.930Z,546
2023-05-24T07:03:49.555Z,546.1
2023-05-24T07:04:51.605Z,546
2023-05-24T07:05:53.256Z,546.1
2023-05-24T07:06:54.886Z,546.3
2023-05-24T07:07:56.755Z,545.9
2023-05-24T07:08:59.519Z,546.2
2023-05-24T07:10:01.322Z,546.1
2023-05-24T07:11:03.451Z,546.1
2023-05-24T07:12:09.700Z,546.4
2023-05-24T07:13:11.866Z,546
2023-05-24T07:14:14.086Z,546.4
2023-05-24T07:15:15.740Z,546.3
2023-05-24T07:16:17.545Z,546.5
2023-05-24T07:17:19.557Z,546.4
2023-05-24T07:18:21.498Z,546.5
2023-05-24T07:19:23.362Z,546.1
2023-05-24T07:20:25.688Z,546.1
2023-05-24T07:21:27.578Z,545.9
2023-05-24T07:22:29.414Z,545.6
2023-05-24T07:23:31.261Z,545.8
2023-05-24T07:24:33.217Z,545.5
2023-05-24T07:25:35.213Z,545.4
2023-05-24T07:26:37.019Z,545.6
2023-05-24T07:27:38.696Z,545.7
2023-05-24T07:28:40.463Z,545.2
2023-05-24T07:29:42.354Z,545.4
2023-05-24T07:30:44.314Z,545.2
2023-05-24T07:31:46.274Z,545.2
2023-05-24T07:32:48.619Z,545.2
2023-05-24T07:33:50.685Z,544.9
2023-05-24T07:34:52.297Z,545.2
2023-05-24T07:35:53.917Z,545.2
2023-05-24T07:36:55.529Z,545.3
2023-05-24T07:37:57.208Z,545.3
2023-05-24T07:38:59.044Z,545.6
2023-05-24T07:40:01.267Z,545.4
2023-05-24T07:41:03.554Z,545.1
2023-05-24T07:42:05.298Z,545.1
2023-05-24T07:43:07.032Z,545.1
2023-05-24T07:44:08.753Z,545.3
2023-05-24T07:45:11.030Z,545.3
2023-05-24T07:46:13.232Z,545.3
2023-05-24T07:47:15.151Z,545.4
2023-05-24T07:48:17.327Z,545.4
2023-05-24T07:49:19.520Z,545.5
2023-05-24T07:50:21.727Z,545.6
2023-05-24T07:51:23.681Z,545.7
2023-05-24T07:52:25.457Z,546.2
2023-05-24T07:53:27.195Z,546.1
2023-05-24T07:54:28.794Z,546
2023-05-24T07:55:30.814Z,546.1
2023-05-24T07:56:32.563Z,545.7
2023-05-24T07:57:34.454Z,546.1
2023-05-24T07:58:36.310Z,546
2023-05-24T07:59:38.028Z,546
2023-05-24T08:00:40.048Z,546.2
2023-05-24T08:01:41.732Z,546
2023-05-24T08:02:44.400Z,546.1
2023-05-24T08:03:46.671Z,545.9
2023-05-24T08:04:48.651Z,546
2023-05-24T08:05:50.462Z,546
2023-05-24T08:06:52.606Z,546.3
2023-05-24T08:07:54.514Z,546.4
2023-05-24T08:08:56.255Z,545.7
2023-05-24T08:09:57.930Z,546.1
2023-05-24T08:11:00.193Z,546.2
2023-05-24T08:12:02.032Z,545.9
2023-05-24T08:13:03.840Z,546
2023-05-24T08:14:05.705Z,546
2023-05-24T08:15:07.430Z,545.8
2023-05-24T08:16:09.458Z,546.1
2023-05-24T08:17:11.115Z,546.1
2023-05-24T08:18:13.127Z,546.4
2023-05-24T08:19:14.837Z,546.4
2023-05-24T08:20:17.108Z,546.5
2023-05-24T08:21:19.053Z,546.2
2023-05-24T08:22:20.729Z,546.3
2023-05-24T08:23:22.323Z,546.5
2023-05-24T08:24:24.101Z,546.6
2023-05-24T08:25:25.825Z,546.8
2023-05-24T08:26:27.705Z,547
2023-05-24T08:27:29.728Z,547.1
2023-05-24T08:28:32.021Z,546.9
2023-05-24T08:29:34.483Z,546.9
2023-05-24T08:30:36.146Z,547.1
2023-05-24T08:31:39.477Z,547.1
2023-05-24T08:32:41.844Z,546.9
2023-05-24T08:33:43.579Z,547.3
2023-05-24T08:34:45.369Z,547.1
2023-05-24T08:35:47.223Z,547.1
2023-05-24T08:36:48.955Z,547.3
2023-05-24T08:37:50.726Z,547.4
2023-05-24T08:38:52.695Z,547.5
2023-05-24T08:39:54.496Z,547.4
2023-05-24T08:40:56.387Z,547.3
2023-05-24T08:42:11.247Z,547.1
2023-05-24T08:43:13.311Z,547.1
2023-05-24T08:44:15.200Z,547.2
2023-05-24T08:45:17.052Z,547.6
2023-05-24T08:46:19.262Z,547.4
2023-05-24T08:47:21.056Z,547.4
2023-05-24T08:48:23.411Z,546.9
2023-05-24T08:49:25.292Z,547.5
2023-05-24T08:50:26.999Z,547.3
2023-05-24T08:51:28.595Z,547.1
2023-05-24T08:52:30.442Z,547.3
2023-05-24T08:53:32.279Z,547.1
2023-05-24T08:54:33.990Z,547.3
2023-05-24T08:55:35.658Z,547.1
2023-05-24T08:56:37.373Z,547.5
2023-05-24T08:57:40.315Z,547.4
2023-05-24T08:58:42.058Z,547.8
2023-05-24T08:59:44.315Z,547.9
2023-05-24T09:00:46.156Z,547.8
2023-05-24T09:01:48.765Z,547.7
2023-05-24T09:02:50.921Z,547.6
2023-05-24T09:03:53.095Z,547.3
2023-05-24T09:04:54.880Z,547.5
2023-05-24T09:05:56.551Z,547.6
2023-05-24T09:06:58.213Z,547.4
2023-05-24T09:07:59.896Z,547.4
2023-05-24T09:09:01.702Z,547.2
2023-05-24T09:10:03.485Z,547.3
2023-05-24T09:11:05.139Z,547.2
2023-05-24T09:12:07.145Z,547.3
2023-05-24T09:13:09.283Z,547.4
2023-05-24T09:14:11.105Z,547.4
2023-05-24T09:15:13.233Z,547.4
2023-05-24T09:16:15.219Z,547.5
2023-05-24T09:17:17.006Z,547.3
2023-05-24T09:18:18.989Z,547.5
2023-05-24T09:19:20.909Z,547.5
2023-05-24T09:20:23.118Z,548.1
2023-05-24T09:21:25.032Z,547.7
2023-05-24T09:22:26.770Z,547.8
2023-05-24T09:23:28.413Z,547.8
2023-05-24T09:24:30.257Z,547.8
2023-05-24T09:25:32.113Z,547.9
2023-05-24T09:26:33.995Z,547.7
2023-05-24T09:27:35.675Z,547.8
2023-05-24T09:28:38.163Z,547.8
2023-05-24T09:29:40.210Z,547.9
2023-05-24T09:30:43.742Z,547.8
2023-05-24T09:31:45.718Z,547.8
2023-05-24T09:32:47.615Z,547.7
2023-05-24T09:33:49.465Z,547.9
2023-05-24T09:34:51.140Z,547.6
2023-05-24T09:35:52.750Z,548.1
2023-05-24T09:36:54.411Z,548.3
2023-05-24T09:37:56.153Z,548.4
2023-05-24T09:38:58.014Z,548.3
2023-05-24T09:39:59.897Z,548.6
2023-05-24T09:41:01.668Z,548.2
2023-05-24T09:42:03.450Z,548.6
2023-05-24T09:43:05.174Z,548.9
2023-05-24T09:44:06.917Z,548.7
2023-05-24T09:45:08.606Z,548.9
2023-05-24T09:46:10.341Z,548.9
2023-05-24T09:47:13.130Z,549
2023-05-24T09:48:15.304Z,548.8
2023-05-24T09:49:17.315Z,548.6
2023-05-24T09:50:19.257Z,549
2023-05-24T09:51:21.323Z,549.3
2023-05-24T09:52:23.466Z,548.9
2023-05-24T09:53:25.276Z,549.5
2023-05-24T09:54:27.476Z,549.4
2023-05-24T09:55:30.880Z,549.6
2023-05-24T09:56:32.743Z,549.6
2023-05-24T09:57:34.413Z,549.3
2023-05-24T09:58:37.016Z,549.4
2023-05-24T09:59:39.503Z,549.2
2023-05-24T10:00:43.866Z,549.3
2023-05-24T10:01:46.396Z,549.7
2023-05-24T10:02:54.807Z,549.7
2023-05-24T10:03:57.307Z,549.2
2023-05-24T10:04:59.988Z,549.4
2023-05-24T10:06:01.990Z,549.4
2023-05-24T10:07:03.649Z,549.2
2023-05-24T10:08:05.579Z,549.2
2023-05-24T10:09:07.400Z,549.5
2023-05-24T10:10:09.233Z,549.3
2023-05-24T10:11:11.008Z,549.1
2023-05-24T10:12:12.760Z,549.5
2023-05-24T10:13:14.598Z,549.4
2023-05-24T10:14:16.473Z,549.7
2023-05-24T10:15:18.416Z,549.4
2023-05-24T10:16:20.618Z,550
2023-05-24T10:17:22.642Z,549.8
2023-05-24T10:18:24.482Z,549.9
2023-05-24T10:19:26.346Z,549.8
2023-05-24T10:20:28.281Z,550.3
2023-05-24T10:21:30.373Z,550.5
2023-05-24T10:22:32.195Z,550.4
2023-05-24T10:23:33.961Z,550.5
2023-05-24T10:24:35.649Z,550.4
2023-05-24T10:25:37.538Z,550.2
2023-05-24T10:26:39.372Z,550.4
2023-05-24T10:27:41.211Z,550.1
2023-05-24T10:28:43.005Z,550.5
2023-05-24T10:29:44.811Z,550.2
2023-05-24T10:30:48.462Z,550.2
2023-05-24T10:31:50.589Z,550.1
2023-05-24T10:32:52.966Z,550.5
2023-05-24T10:34:09.375Z,550.8
2023-05-24T10:35:11.272Z,550.7
2023-05-24T10:36:13.628Z,550.8
2023-05-24T10:37:15.903Z,550.6
2023-05-24T10:38:17.869Z,550.8
2023-05-24T10:39:19.915Z,551.1
2023-05-24T10:40:21.962Z,551
2023-05-24T10:41:23.839Z,551.5
2023-05-24T10:42:25.531Z,551.3
2023-05-24T10:43:27.189Z,551.4
2023-05-24T10:44:28.949Z,551.6
2023-05-24T10:45:30.795Z,551.9
2023-05-24T10:46:33.060Z,551.7
2023-05-24T10:47:39.567Z,552
2023-05-24T10:48:41.786Z,552
2023-05-24T10:49:43.503Z,552.1
2023-05-24T10:50:46.016Z,552.1
2023-05-24T10:51:47.937Z,552.2
2023-05-24T10:52:49.884Z,552.5
2023-05-24T10:53:51.751Z,552.6
2023-05-24T10:55:05.993Z,552.5
2023-05-24T10:56:07.742Z,552.9
2023-05-24T10:57:09.519Z,552.4
2023-05-24T10:58:11.316Z,552.3
2023-05-24T10:59:13.090Z,552.5
2023-05-24T11:00:36.527Z,552.7
2023-05-24T11:01:38.872Z,552.8
2023-05-24T11:02:41.215Z,553
2023-05-24T11:03:42.992Z,552.6
2023-05-24T11:04:44.817Z,552.9
2023-05-24T11:05:47.697Z,553
2023-05-24T11:06:49.614Z,553.1
2023-05-24T11:07:51.551Z,553.4
2023-05-24T11:08:53.568Z,553.4
2023-05-24T11:09:55.196Z,553.5
2023-05-24T11:10:56.849Z,553.2
2023-05-24T11:11:58.542Z,553.5
2023-05-24T11:13:00.263Z,553.6
2023-05-24T11:14:02.224Z,553.7
2023-05-24T11:15:04.371Z,553.3
2023-05-24T11:16:06.364Z,553
2023-05-24T11:17:08.403Z,553.4
2023-05-24T11:18:10.504Z,553.6
2023-05-24T11:19:12.550Z,553.7
2023-05-24T11:20:14.605Z,553.9
2023-05-24T11:21:16.508Z,553.9
2023-05-24T11:22:18.402Z,553.9
2023-05-24T11:23:20.095Z,553.5
2023-05-24T11:24:22.419Z,554
2023-05-24T11:25:24.422Z,554
2023-05-24T11:26:26.271Z,554.1
2023-05-24T11:27:27.983Z,553.9
2023-05-24T11:28:29.925Z,554
2023-05-24T11:29:31.931Z,553.9
2023-05-24T11:30:33.775Z,554
2023-05-24T11:31:45.065Z,554
2023-05-24T11:32:47.209Z,553.8
2023-05-24T11:33:49.048Z,554.2
2023-05-24T11:34:50.970Z,554
2023-05-24T11:35:53.070Z,554.2
2023-05-24T11:36:54.801Z,554.3
2023-05-24T11:37:56.757Z,554.1
2023-05-24T11:38:58.391Z,554.5
2023-05-24T11:40:00.124Z,554.6
2023-05-24T11:41:01.997Z,554.7
2023-05-24T11:42:03.717Z,554.5
2023-05-24T11:43:05.422Z,554.7
2023-05-24T11:44:07.066Z,554.9
2023-05-24T11:45:08.674Z,555.4
2023-05-24T11:46:10.769Z,555.4
2023-05-24T11:47:12.561Z,555.8
2023-05-24T11:48:15.224Z,555.9
2023-05-24T11:49:17.228Z,555.8
2023-05-24T11:50:19.125Z,556.1
2023-05-24T11:51:21.009Z,556.3
2023-05-24T11:52:22.878Z,556.3
2023-05-24T11:53:24.712Z,556.2
2023-05-24T11:54:26.676Z,556.6
2023-05-24T11:55:28.639Z,556
2023-05-24T11:56:34.782Z,556.3
2023-05-24T11:57:36.518Z,556.8
2023-05-24T11:58:38.324Z,556.6
2023-05-24T11:59:40.112Z,556.4
2023-05-24T12:00:43.193Z,556.8
2023-05-24T12:01:45.165Z,556.8
2023-05-24T12:02:47.462Z,557
2023-05-24T12:03:50.339Z,557.1
2023-05-24T12:04:52.484Z,556.7
2023-05-24T12:05:54.532Z,556.9
2023-05-24T12:06:56.248Z,557
2023-05-24T12:07:58.111Z,557.4
2023-05-24T12:09:00.051Z,557.3
2023-05-24T12:10:02.029Z,557.4
2023-05-24T12:11:03.962Z,556.9
2023-05-24T12:12:05.793Z,557.3
2023-05-24T12:13:07.651Z,556.9
2023-05-24T12:14:09.392Z,557.1
2023-05-24T12:15:11.475Z,557.4
2023-05-24T12:16:13.618Z,557.3
2023-05-24T12:17:15.464Z,557.9
2023-05-24T12:18:17.550Z,557.9
2023-05-24T12:19:34.771Z,557.7
2023-05-24T12:20:37.458Z,557.7
2023-05-24T12:21:39.484Z,557.8
2023-05-24T12:22:41.162Z,557.9
2023-05-24T12:23:42.815Z,557.9
2023-05-24T12:24:44.806Z,558
2023-05-24T12:25:46.657Z,558.1
2023-05-24T12:26:48.507Z,558.6
2023-05-24T12:27:54.852Z,558.1
2023-05-24T12:28:56.818Z,558.5
2023-05-24T12:29:58.755Z,558.4
2023-05-24T12:31:00.843Z,558.6
2023-05-24T12:32:02.895Z,558.4
2023-05-24T12:33:05.068Z,558.6
2023-05-24T12:34:06.915Z,558.5
2023-05-24T12:35:08.837Z,558.6
2023-05-24T12:36:10.882Z,558.9
2023-05-24T12:37:14.448Z,558.6
2023-05-24T12:38:16.415Z,558.6
2023-05-24T12:39:18.274Z,558.6
2023-05-24T12:40:20.226Z,558.8
2023-05-24T12:41:22.077Z,558.8
2023-05-24T12:42:23.935Z,558.8
2023-05-24T12:43:25.878Z,558.7
2023-05-24T12:44:27.575Z,558.8
2023-05-24T12:45:29.306Z,559.4
2023-05-24T12:46:31.471Z,559.2
2023-05-24T12:47:33.853Z,559.5
2023-05-24T12:48:35.742Z,559.6
2023-05-24T12:49:37.708Z,559.4
2023-05-24T12:50:40.513Z,559.4
2023-05-24T12:51:42.410Z,559.5
2023-05-24T12:52:44.129Z,559.5
2023-05-24T12:53:45.779Z,559.5
2023-05-24T12:54:47.419Z,559.7
2023-05-24T12:55:49.199Z,560.1
2023-05-24T12:56:57.806Z,559.7
2023-05-24T12:57:59.775Z,559.9
2023-05-24T12:59:01.618Z,560
2023-05-24T13:00:03.515Z,560.1
2023-05-24T13:01:05.754Z,560.4
2023-05-24T13:02:07.986Z,560.1
2023-05-24T13:03:10.150Z,560.5
2023-05-24T13:04:12.001Z,560.1
2023-05-24T13:05:13.976Z,560.1
2023-05-24T13:06:16.008Z,560
2023-05-24T13:07:17.839Z,560.4
2023-05-24T13:08:20.372Z,560.4
2023-05-24T13:09:22.614Z,560.6
2023-05-24T13:10:24.255Z,560.6
2023-05-24T13:11:25.906Z,560.8
2023-05-24T13:12:27.600Z,560.7
2023-05-24T13:13:29.451Z,560.9
2023-05-24T13:14:31.659Z,560.8
2023-05-24T13:15:33.349Z,560.9
2023-05-24T13:16:35.802Z,560.9
2023-05-24T13:17:37.809Z,561.2
2023-05-24T13:18:39.733Z,561.6
2023-05-24T13:19:42.110Z,561.8
2023-05-24T13:20:45.264Z,561.4
2023-05-24T13:21:47.570Z,561.5
2023-05-24T13:22:49.362Z,562.1
2023-05-24T13:23:51.771Z,561.9
2023-05-24T13:24:53.911Z,562.2
2023-05-24T13:25:55.717Z,562.2